AirNav   Air Wisconsin pilot careers
 
 341 users online  

KRWN Arens Field Airport
Winamac, Indiana, USA

GOING TO WINAMAC?


FAA INFORMATION EFFECTIVE 29 MARCH 2018

Location

FAA Identifier: RWN
Lat/Long: 41-05-32.1470N / 086-36-46.3360W
41-05.535783N / 086-36.772267W
41.0922631 / -86.6128711
(estimated)
Elevation: 708.3 ft. / 215.9 m (surveyed)
Variation: 03W (2000)
From city: 3 miles N of WINAMAC, IN
Time zone: UTC -4 (UTC -5 during Standard Time)
Zip code: 46996

Airport Operations

Airport use: Open to the public
Activation date: 08/1969
Control tower: no
ARTCC: CHICAGO CENTER
FSS: TERRE HAUTE FLIGHT SERVICE STATION
NOTAMs facility: HUF (NOTAM-D service available)
Attendance: MON-SAT 0900-1700
Wind indicator: lighted
Segmented circle: no
Lights: ACTVT REIL RY09/27; LIRL RY 09/27 - 122.8.

Airport Communications

CTAF/UNICOM: 122.8
SOUTH BEND APPROACH: 132.05
SOUTH BEND DEPARTURE: 132.05
WX AWOS-3 at OXI (14 nm N): 135.775 (574-772-2041)
WX AWOS-3 at RCR (20 nm E): 118.775 (574-223-3560)
  • APCH/DEP SERVICE PROVIDED BY CHICAGO ARTCC ON FREQS 119.85/362.3 (FORT WAYNE RCAG); WHEN SOUTH BEND APCH CTL CLSD.

Nearby radio navigation aids

VOR radial/distance  VOR name  Freq  Var
OXIr173/13.9KNOX VOR/DME115.6000E
GUSr324/34.0GRISSOM VORTAC108.4502W
GSHr225/37.0GOSHEN VORTAC113.7000E
BVTr032/38.3BOILER VORTAC115.1001E

 
NDB name  Hdg/Dist  Freq  Var  ID
LA PORTE167/25.435603WIUL .. ..- .-..

Airport Services

Fuel available: 100LL
Parking: hangars and tiedowns
Airframe service: NONE
Powerplant service: NONE
Bottled oxygen: NONE
Bulk oxygen: NONE

Runway Information

Runway 9/27

Dimensions: 4201 x 75 ft. / 1280 x 23 m
300 FT STWY ON WEST END.
Surface: asphalt/grooved, in excellent condition
Weight bearing capacity: 
Single wheel: RWY 09/27 EST SINGLE WHEEL PAVEMENT STRENGTH 12000 LBS PER AMGR.
Runway edge lights: low intensity
RUNWAY 9  RUNWAY 27
Latitude: 41-05.536993N41-05.534467N
Longitude: 086-37.229102W086-36.314678W
Elevation: 705.6 ft.706.7 ft.
Gradient: 0.1%0.1%
Traffic pattern: leftleft
Runway heading: 093 magnetic, 090 true273 magnetic, 270 true
Displaced threshold: no560 ft.
Markings: nonprecision, in fair conditionnonprecision, in fair condition
Visual slope indicator: 2-light PAPI on left (3.00 degrees glide path)2-light PAPI on left (4.25 degrees glide path)
Runway end identifier lights: yes
REIL OTS INDEFLY.
yes
Touchdown point: yes, no lightsyes, no lights
Obstructions: 10 ft. road, 430 ft. from runway, 23:1 slope to clear
4 FT FENCE 200 FT N.
none

Airport Ownership and Management from official FAA records

Ownership: Publicly-owned
Owner: WINAMAC-PULASKI CO BOAC
2595N. US 35
WINAMAC, IN 46996
Phone 574-946-6785
JIM MCDANIEL, PRES.
Manager: MR. BUD WIDNER
2595 N. US 35
WINAMAC, IN 46996
Phone 574-946-6785

Airport Operational Statistics

Aircraft based on the field: 9
Single engine airplanes: 9
    
Aircraft operations: avg 23/week *
66% local general aviation
34% transient general aviation
* for 12-month period ending 31 December 2015

Instrument Procedures

NOTE: All procedures below are presented as PDF files. If you need a reader for these files, you should download the free Adobe Reader.

NOT FOR NAVIGATION. Please procure official charts for flight.
FAA instrument procedures published for use from 29 March 2018 at 0901Z to 26 April 2018 at 0900Z.

 
IAPs - Instrument Approach Procedures
RNAV (GPS) RWY 09   download (198KB)
RNAV (GPS) RWY 27   download (200KB)
VOR/DME-A   download (143KB)
NOTE: Special Take-Off Minimums/Departure Procedures apply   download (164KB)

Other nearby airports with instrument procedures:

KOXI - Starke County Airport (14 nm N)
KRCR - Fulton County Airport (20 nm E)
C65 - Plymouth Municipal Airport (22 nm NE)
KMCX - White County Airport (24 nm S)
KGGP - Logansport/Cass County Airport (25 nm SE)
 
Loc | Ops | Rwys | IFR | FBO | Links
Com | Nav | Svcs | Stats | Notes

AirNav Hotels Sweepstakes
 
Area around KRWN (Arens Field Airport)
 
Road maps at: MapQuest Bing Google
 
Aerial photo
WARNING: Photo may not be current or correct
Aerial photo of KRWN (Arens Field Airport)
Do you have a better or more recent aerial photo of Arens Field Airport that you would like to share? If so, please send us your photo.

 
Sectional chart

 
Airport distance calculator
Flying to Arens Field Airport? Find the distance to fly.

From to KRWN

Sunrise and sunset
Times for 24-Apr-2018
 Local
(UTC-4)
 Zulu
(UTC)
Morning civil twilight06:2610:26
Sunrise06:5510:55
Sunset20:3400:34
Evening civil twilight21:0401:04

Current date and time
Zulu (UTC)  24-Apr-2018 07:56:06
Local (UTC-4)  24-Apr-2018 03:56:06
 
METAR
KOXI 
14nm N 
240735Z AUTO 06004KT 10SM SCT020 SCT045 OVC090 09/08 A3005 RMK AO1
KRCR 
20nm E 
240735Z AUTO 07004KT 10SM OVC047 11/10 A3005 RMK AO2
KMCX 
24nm S 
240735Z AUTO 06004KT 10SM OVC043 11/10 A3002 RMK AO2 T01050095
KGGP 
25nm SE 
240735Z AUTO 08006KT 10SM OVC050 10/08 A3003 RMK AO2
KRZL 
27nm W 
240735Z AUTO 05006KT 10SM OVC026 11/08 A3004 RMK AO2
KVPZ 
28nm NW 
240656Z AUTO 07005KT 10SM OVC100 11/09 A3006 RMK AO2 SLP178 T01060094
TAF
KGUS 
35nm SE 
240300Z 2403/2509 10006KT 8000 -SHRA OVC045 610904 QNH2999INS BECMG 2408/2409 08006KT 4800 -DZ BR OVC005 620904 QNH2998INS BECMG 2414/2415 07009KT 9999 NSW OVC007 620906 QNH2993INS BECMG 2415/2416 05009KT 9999 OVC010 620906 QNH2991INS BECMG 2500/2501 01006KT 6000 BR OVC007 620906 QNH2988INS TX14/2418Z TN10/2412Z
KSBN 
39nm N 
240539Z 2406/2506 11006KT P6SM -SHRA SCT020 OVC035 FM241000 08006KT 5SM BR VCSH OVC015 FM241800 02008KT P6SM OVC010
NOTAMs
Click for the latest NOTAMs
NOTAMs are issued by the DoD/FAA and will open in a separate window not controlled by AirNav.

 

 
 

FBO, Fuel Providers, and Aircraft Ground Support

  
 Business Name 
 
 Contact 
 
 Services / Description 
 
Fuel Prices
 
Comments
  
Airport Management Service, Inc. 574-946-6785
no information available

If you are affiliated with Airport Management Service, Inc. and would like to show here your services, contact info, web link, logo, and more, click here
100LL Jet A
SS $4.10 $2.80 
 Updated 16-Apr-2018
 
   2 read write
SS=Self service
Update Fuel Prices
 

Would you like to see your business listed on this page?

 If your business provides an interesting product or service to pilots, flight crews, aircraft, or users of the Arens Field Airport, you should consider listing it here.  To start the listing process, click on the button below
 
Add a business
 

Other Pages about Arens Field Airport

Update a link
 
Copyright © AirNav, LLC. All rights reserved. Privacy Policy  Contact